Time;durP1;ratioP1;P1;durP2;ratioP2;P2;SDS_P1;SDS_P2;PMS_P1;PMS_P2;Temp;Humidity;BMP_temperature;BMP_pressure;BME280_temperature;BME280_humidity;BME280_pressure;Samples;Min_cycle;Max_cycle;Signal;HPM_P1;HPM_P2
2021/05/03 00:00:58;;;;;;;18.02;8.63;;;;;;;4.77;87.24;100441.78;5128713;56;1138812;-70
2021/05/03 00:06:04;;;;;;;14.98;7.35;;;;;;;4.78;87.44;100442.16;5153514;56;1136258;-71
2021/05/03 00:11:10;;;;;;;9.98;5.35;;;;;;;4.79;87.48;100441.23;5153694;56;1136279;-71
2021/05/03 00:16:16;;;;;;;7.53;4.93;;;;;;;4.78;87.44;100448.72;5153779;56;1134130;-74
2021/05/03 00:21:22;;;;;;;7.30;4.50;;;;;;;4.77;87.24;100445.71;5153602;56;1136555;-71
2021/05/03 00:26:27;;;;;;;5.78;3.72;;;;;;;4.75;87.11;100445.80;5153452;56;1136560;-71
2021/05/03 00:31:33;;;;;;;6.40;4.03;;;;;;;4.76;87.19;100454.50;5153413;56;1136356;-74
2021/05/03 00:36:39;;;;;;;5.93;4.40;;;;;;;4.71;87.23;100453.92;5153686;56;1134382;-74
2021/05/03 00:41:45;;;;;;;9.13;3.17;;;;;;;4.69;87.21;100461.86;5153398;56;1136464;-71
2021/05/03 00:46:52;;;;;;;10.77;4.37;;;;;;;4.68;87.10;100464.09;5153582;56;1136603;-73
2021/05/03 00:51:58;;;;;;;3.10;2.80;;;;;;;4.60;87.22;100463.19;5153967;56;1136623;-73
2021/05/03 00:57:04;;;;;;;6.37;4.53;;;;;;;4.58;87.30;100462.42;5154296;56;1136326;-73
2021/05/03 01:02:10;;;;;;;4.97;4.10;;;;;;;4.58;87.39;100466.34;5154481;56;1136616;-72
2021/05/03 01:07:16;;;;;;;17.33;5.13;;;;;;;4.55;87.44;100459.14;5154348;56;1134136;-73
2021/05/03 01:12:22;;;;;;;5.03;3.93;;;;;;;4.55;87.39;100469.62;5153732;56;1138225;-71
2021/05/03 01:17:33;;;;;;;5.08;4.00;;;;;;;4.52;87.54;100478.95;5153798;56;1136217;-74
2021/05/03 01:22:39;;;;;;;5.97;4.43;;;;;;;4.49;87.64;100471.25;5153882;56;1136748;-73
2021/05/03 01:27:45;;;;;;;8.00;5.27;;;;;;;4.49;87.74;100475.17;5154108;56;1136687;-72
2021/05/03 01:32:51;;;;;;;8.80;5.00;;;;;;;4.49;87.64;100477.80;5154247;56;1134557;-72
2021/05/03 01:37:59;;;;;;;9.87;5.27;;;;;;;4.49;87.64;100477.80;5154353;56;1136891;-73
2021/05/03 01:43:22;;;;;;;8.65;4.58;;;;;;;4.51;87.79;100481.18;5153894;56;1136669;-71
2021/05/03 01:48:30;;;;;;;13.60;5.27;;;;;;;4.50;87.88;100485.57;5154088;56;1134570;-72
2021/05/03 01:53:36;;;;;;;5.97;4.07;;;;;;;4.50;87.92;100482.10;5154698;56;1136750;-75
2021/05/03 01:58:42;;;;;;;9.57;5.23;;;;;;;4.55;87.79;100488.80;5154814;56;1136786;-73
2021/05/03 02:03:48;;;;;;;7.73;4.73;;;;;;;4.59;87.82;100497.31;5154929;56;1136785;-71
2021/05/03 02:08:54;;;;;;;12.00;3.70;;;;;;;4.62;87.79;100498.47;5165497;56;1136866;-72
2021/05/03 02:14:00;;;;;;;7.95;4.58;;;;;;;4.57;87.82;100483.48;5139902;56;1136741;-75
2021/05/03 02:19:06;;;;;;;8.93;5.03;;;;;;;4.56;87.66;100500.97;5155160;56;1136674;-69
2021/05/03 02:24:12;;;;;;;6.24;4.94;;;;;;;4.59;87.71;100499.47;5154658;56;1136693;-72
2021/05/03 02:29:17;;;;;;;8.50;4.40;;;;;;;4.59;87.67;100499.94;5155208;56;1134816;-74
2021/05/03 02:34:23;;;;;;;9.03;4.43;;;;;;;4.57;87.63;100499.20;5155009;56;1134648;-71
2021/05/03 02:39:29;;;;;;;6.27;4.27;;;;;;;4.59;87.60;100500.78;5154847;56;1136465;-71
2021/05/03 02:44:38;;;;;;;5.07;3.30;;;;;;;4.69;87.72;100502.47;5154846;56;1136178;-71
2021/05/03 02:49:42;;;;;;;3.53;2.83;;;;;;;4.65;87.50;100504.02;5155203;56;1134235;-71
2021/05/03 02:54:47;;;;;;;6.17;3.33;;;;;;;4.56;87.72;100510.14;5153882;56;1136475;-73
2021/05/03 02:59:53;;;;;;;8.07;4.33;;;;;;;4.49;88.00;100516.61;5153802;56;1136877;-73
2021/05/03 03:04:59;;;;;;;4.93;4.30;;;;;;;4.43;88.37;100512.99;5154128;56;1134710;-75
2021/05/03 03:10:06;;;;;;;5.03;4.23;;;;;;;4.41;88.62;100521.88;5153698;56;1136699;-75
2021/05/03 03:15:14;;;;;;;10.65;4.72;;;;;;;4.41;88.67;100521.88;5153774;56;1136710;-71
2021/05/03 03:20:21;;;;;;;6.73;4.37;;;;;;;4.34;89.62;100524.42;5153463;56;1138888;-72
2021/05/03 03:25:29;;;;;;;6.43;4.37;;;;;;;4.34;89.62;100524.42;5153930;56;1134609;-71
2021/05/03 03:30:34;;;;;;;6.00;4.13;;;;;;;4.36;89.28;100528.66;5153833;56;1136646;-71
2021/05/03 03:35:40;;;;;;;5.20;3.60;;;;;;;4.38;89.58;100535.13;5153769;55;1136571;-73
2021/05/03 03:40:46;;;;;;;4.80;3.17;;;;;;;4.35;90.21;100541.36;5153835;56;1134077;-73
2021/05/03 03:45:52;;;;;;;2.80;2.60;;;;;;;4.36;90.42;100547.45;5153951;56;1134614;-72
2021/05/03 03:50:58;;;;;;;7.10;3.90;;;;;;;4.39;90.62;100552.53;5153753;56;1136900;-76
2021/05/03 03:56:03;;;;;;;6.65;3.30;;;;;;;4.42;90.48;100550.61;5153633;56;1136759;-72
2021/05/03 04:01:12;;;;;;;3.65;3.25;;;;;;;4.45;90.66;100566.14;5153691;56;1136941;-70
2021/05/03 04:06:40;;;;;;;10.23;4.17;;;;;;;4.45;91.11;100560.90;5153637;56;1134635;-74
2021/05/03 04:11:58;;;;;;;5.97;4.20;;;;;;;4.48;91.72;100567.30;5151689;56;1136645;-74
2021/05/03 04:22:36;;;;;;;6.47;4.30;;;;;;;4.55;91.78;100577.00;5153912;56;1134339;-70
2021/05/03 04:27:22;;;;;;;5.67;4.83;;;;;;;4.56;91.93;100572.16;5148735;56;1134364;-72
2021/05/03 04:32:28;;;;;;;8.00;4.83;;;;;;;4.60;92.04;100579.75;5154503;56;1134241;-74
2021/05/03 04:37:33;;;;;;;7.07;4.47;;;;;;;4.66;92.14;100584.30;5154125;56;1136440;-74
2021/05/03 04:42:40;;;;;;;7.10;4.97;;;;;;;4.69;92.49;100585.45;5154213;56;1134190;-73
2021/05/03 04:47:45;;;;;;;6.53;5.43;;;;;;;4.72;92.66;100587.45;5154230;56;1134308;-73
2021/05/03 04:52:52;;;;;;;7.40;6.33;;;;;;;4.78;92.60;100588.89;5154199;56;1134611;-71
2021/05/03 04:57:58;;;;;;;8.17;5.63;;;;;;;4.84;92.85;100593.81;5154674;56;1134626;-70
2021/05/03 05:03:03;;;;;;;6.22;5.62;;;;;;;4.88;93.24;100594.89;5154329;56;1134585;-72
2021/05/03 05:08:09;;;;;;;10.43;6.65;;;;;;;4.90;92.80;100603.49;5154413;56;1134594;-75
2021/05/03 05:13:15;;;;;;;9.38;4.97;;;;;;;4.96;92.93;100611.51;5154209;56;1136893;-70
2021/05/03 05:18:21;;;;;;;8.00;4.90;;;;;;;4.96;92.93;100611.51;5154259;56;1134191;-71
2021/05/03 05:23:26;;;;;;;8.07;5.33;;;;;;;5.06;93.01;100625.81;5153940;56;1136286;-71
2021/05/03 05:28:32;;;;;;;9.97;5.60;;;;;;;5.12;92.93;100628.12;5154034;56;1136692;-71
2021/05/03 05:33:38;;;;;;;10.10;6.47;;;;;;;5.20;92.63;100631.16;5154274;56;1134280;-72
2021/05/03 05:38:44;;;;;;;11.40;7.27;;;;;;;5.27;92.50;100639.55;5153812;56;1138342;-75
2021/05/03 05:43:50;;;;;;;7.78;6.03;;;;;;;5.29;92.21;100639.86;5154007;56;1136239;-74
2021/05/03 05:48:56;;;;;;;9.53;7.10;;;;;;;5.33;92.38;100647.57;5154229;56;1134663;-74
2021/05/03 05:54:02;;;;;;;12.53;7.30;;;;;;;5.38;92.10;100650.77;5154120;56;1136679;-74
2021/05/03 05:59:09;;;;;;;8.40;6.47;;;;;;;5.39;91.81;100660.33;5153644;56;1139012;-78
2021/05/03 06:04:14;;;;;;;10.80;6.40;;;;;;;5.42;91.80;100667.58;5153296;56;1136759;-70
2021/05/03 06:09:20;;;;;;;13.03;7.40;;;;;;;5.48;91.69;100668.58;5148844;56;1138465;-74
2021/05/03 06:14:26;;;;;;;8.50;6.90;;;;;;;5.53;91.45;100667.84;5130871;56;1138407;-76
2021/05/03 06:19:31;;;;;;;10.20;7.53;;;;;;;5.56;91.09;100678.63;5029258;57;1136672;-73
2021/05/03 06:24:37;;;;;;;9.80;6.87;;;;;;;5.59;91.11;100679.32;5130342;56;1138621;-78
2021/05/03 06:29:43;;;;;;;9.90;7.77;;;;;;;5.67;91.00;100685.45;5132371;56;1136521;-77
2021/05/03 06:34:49;;;;;;;8.47;6.33;;;;;;;5.66;90.72;100687.69;5121777;56;1136739;-73
2021/05/03 06:39:54;;;;;;;18.30;10.97;;;;;;;5.69;90.57;100694.55;5122687;56;1136649;-73
2021/05/03 06:45:00;;;;;;;7.97;5.40;;;;;;;5.69;90.24;100692.77;5116882;56;1140900;-73
2021/05/03 06:50:10;;;;;;;6.63;5.47;;;;;;;5.70;90.25;100694.94;5111241;56;1136774;-75
2021/05/03 06:55:16;;;;;;;13.18;9.08;;;;;;;5.76;90.42;100703.80;5123246;56;1136700;-75
2021/05/03 07:00:24;;;;;;;7.33;5.73;;;;;;;5.81;90.43;100705.22;5133262;56;1138518;-78
2021/05/03 07:05:29;;;;;;;12.07;5.70;;;;;;;5.89;89.60;100708.31;5126092;56;1136410;-77
2021/05/03 07:10:38;;;;;;;5.43;4.90;;;;;;;5.99;89.73;100706.02;5135559;56;1138466;-72
2021/05/03 07:15:43;;;;;;;11.85;6.78;;;;;;;6.06;89.07;100706.54;5006815;57;1136581;-71
2021/05/03 07:20:49;;;;;;;13.00;10.77;;;;;;;6.10;88.91;100718.57;5153077;56;1138361;-77
2021/05/03 07:25:55;;;;;;;7.20;5.53;;;;;;;6.17;88.44;100721.22;5120872;56;1140603;-74
2021/05/03 07:31:01;;;;;;;4.90;3.87;;;;;;;6.21;88.30;100727.53;5118748;56;1137449;-70
2021/05/03 07:36:07;;;;;;;6.12;4.30;;;;;;;6.20;86.83;100729.78;5068260;57;1136570;-75
2021/05/03 07:41:13;;;;;;;8.10;4.90;;;;;;;6.20;87.61;100735.03;5068262;57;1136315;-77
2021/05/03 07:46:24;;;;;;;7.63;6.10;;;;;;;6.23;87.71;100738.80;5073412;56;1136305;-76
2021/05/03 07:51:27;;;;;;;9.53;4.83;;;;;;;6.18;87.53;100744.77;5152386;56;1136396;-76
2021/05/03 07:56:33;;;;;;;6.73;4.93;;;;;;;6.07;87.07;100751.55;5152568;56;1136490;-77
2021/05/03 08:01:40;;;;;;;6.63;4.50;;;;;;;5.98;87.05;100760.77;5153048;56;1136280;-71
2021/05/03 08:06:47;;;;;;;7.97;4.63;;;;;;;6.04;87.32;100755.19;5153152;56;1136349;-78
2021/05/03 08:11:53;;;;;;;8.93;5.57;;;;;;;6.22;87.74;100758.12;5153300;56;1136597;-77
2021/05/03 08:17:00;;;;;;;5.17;4.00;;;;;;;6.37;87.44;100764.76;5152928;56;1136507;-73
2021/05/03 08:22:06;;;;;;;9.75;4.50;;;;;;;6.48;86.52;100771.56;5153196;56;1136950;-74
2021/05/03 08:27:12;;;;;;;13.38;5.05;;;;;;;6.51;86.57;100785.38;5153157;56;1136597;-73
2021/05/03 08:32:18;;;;;;;8.30;4.40;;;;;;;6.44;86.09;100791.05;5152441;56;1138541;-73
2021/05/03 08:37:23;;;;;;;9.50;4.17;;;;;;;6.39;86.20;100798.36;5138250;56;1136420;-74
2021/05/03 08:42:29;;;;;;;6.87;4.20;;;;;;;6.37;85.36;100808.10;5135521;56;1136262;-72
2021/05/03 08:47:38;;;;;;;3.50;3.20;;;;;;;6.25;85.53;100813.58;5125319;56;1136318;-72
2021/05/03 08:52:54;;;;;;;3.60;3.30;;;;;;;6.16;85.43;100818.84;5132197;56;1136697;-76
2021/05/03 08:57:59;;;;;;;3.20;2.90;;;;;;;6.05;85.00;100815.96;5140825;56;1136322;-73
2021/05/03 09:03:12;;;;;;;6.67;3.80;;;;;;;6.04;84.47;100809.48;5152922;56;1136514;-75
2021/05/03 09:08:26;;;;;;;4.55;3.10;;;;;;;6.07;84.97;100806.70;5152258;56;1136895;-76
2021/05/03 09:13:36;;;;;;;4.53;3.17;;;;;;;6.10;83.60;100810.47;5148088;56;1136498;-73
2021/05/03 09:18:42;;;;;;;13.07;5.40;;;;;;;6.18;83.45;100808.27;5101289;56;1136487;-71
2021/05/03 09:24:23;;;;;;;10.13;4.73;;;;;;;6.19;82.21;100804.70;5100837;56;1138347;-75
2021/05/03 09:29:42;;;;;;;15.10;5.83;;;;;;;6.19;82.99;100812.59;5100661;56;1138328;-76
2021/05/03 09:34:54;;;;;;;2.25;1.35;;;;;;;6.25;82.69;100809.63;5151962;56;1138377;-71
2021/05/03 09:40:18;;;;;;;6.53;2.80;;;;;;;6.28;81.50;100812.91;5153596;56;1136326;-75
2021/05/03 09:45:33;;;;;;;14.43;5.78;;;;;;;6.32;81.91;100815.77;5152959;56;1136516;-71
2021/05/03 09:50:38;;;;;;;14.67;4.10;;;;;;;6.43;81.29;100813.84;5104354;56;1138491;-72
2021/05/03 09:55:53;;;;;;;7.53;3.60;;;;;;;6.44;80.82;100814.23;5101065;56;1136374;-68
2021/05/03 10:00:59;;;;;;;4.67;1.70;;;;;;;6.55;81.05;100802.67;5118315;56;1136793;-74
2021/05/03 10:06:09;;;;;;;1.83;1.73;;;;;;;6.77;82.58;100814.58;5153049;56;1136710;-74
2021/05/03 10:11:17;;;;;;;9.43;4.58;;;;;;;6.88;81.60;100806.45;5153578;56;1136698;-73
2021/05/03 10:16:25;;;;;;;14.40;5.30;;;;;;;7.01;81.32;100807.92;5153227;56;1136653;-73
2021/05/03 10:21:30;;;;;;;2.53;1.40;;;;;;;7.09;80.94;100799.10;5153159;56;1138758;-74
2021/05/03 10:26:36;;;;;;;2.80;2.60;;;;;;;7.29;80.75;100797.47;5153056;56;1136445;-73
2021/05/03 10:32:01;;;;;;;4.30;2.93;;;;;;;7.59;78.89;100797.41;5153494;56;1136395;-72
2021/05/03 10:37:36;;;;;;;5.77;3.23;;;;;;;7.70;76.81;100791.48;5152765;56;1138537;-74
2021/05/03 10:43:06;;;;;;;4.03;1.85;;;;;;;7.71;76.91;100787.91;5153241;56;1136726;-73
2021/05/03 10:49:26;;;;;;;1.60;1.50;;;;;;;7.85;75.12;100784.42;5153134;56;1136736;-74
2021/05/03 10:53:46;;;;;;;1.43;1.33;;;;;;;7.58;75.51;100800.98;5129247;56;1134631;-74
2021/05/03 10:58:59;;;;;;;1.47;1.17;;;;;;;7.32;78.50;100808.28;5153145;56;1136693;-73
2021/05/03 11:04:09;;;;;;;1.85;1.67;;;;;;;7.02;80.95;100810.94;5153688;56;1136712;-73
2021/05/03 11:09:40;;;;;;;1.05;0.90;;;;;;;6.95;81.40;100816.16;5154015;56;1136693;-73
2021/05/03 11:15:23;;;;;;;1.03;0.90;;;;;;;6.90;81.37;100816.41;5154208;56;1136759;-73
2021/05/03 11:20:30;;;;;;;4.50;2.70;;;;;;;6.83;81.67;100816.87;5154108;56;1136313;-73
2021/05/03 11:25:37;;;;;;;2.43;1.57;;;;;;;6.71;82.31;100815.80;5154029;56;1136854;-73
2021/05/03 11:46:25;;;;;;;4.12;3.27;;;;;;;6.29;87.09;100819.02;5127210;56;1138320;-73
2021/05/03 11:51:25;;;;;;;4.80;2.80;;;;;;;6.36;87.12;100811.19;5131211;56;1136294;-74
2021/05/03 11:56:32;;;;;;;6.37;3.10;;;;;;;6.62;89.69;100808.41;5125502;56;1136775;-73
2021/05/03 12:01:38;;;;;;;8.53;3.15;;;;;;;7.15;91.37;100799.22;5127944;56;1136299;-72
2021/05/03 12:06:44;;;;;;;5.73;2.63;;;;;;;7.51;87.61;100791.75;5127126;56;1136307;-73
2021/05/03 12:12:00;;;;;;;3.87;2.97;;;;;;;7.84;85.62;100779.63;5124799;56;1136668;-74
2021/05/03 12:17:24;;;;;;;3.70;2.53;;;;;;;8.04;83.33;100775.28;5109442;56;1136712;-74
2021/05/03 12:22:32;;;;;;;1.80;1.17;;;;;;;7.97;81.99;100783.65;5131415;56;1136585;-74
2021/05/03 12:27:39;;;;;;;1.83;0.93;;;;;;;7.68;77.97;100789.41;5019138;56;1136596;-73
2021/05/03 12:32:45;;;;;;;2.30;1.17;;;;;;;7.36;77.85;100786.09;5135547;56;1136605;-73
2021/05/03 12:37:51;;;;;;;1.60;0.93;;;;;;;7.34;78.73;100786.64;5130854;55;1136680;-73
2021/05/03 12:43:01;;;;;;;1.20;1.00;;;;;;;7.62;79.13;100774.85;5133920;56;1136401;-74
2021/05/03 12:58:49;;;;;;;12.40;8.37;;;;;;;9.07;75.93;100751.84;5144348;56;973989;-74
2021/05/03 13:09:35;;;;;;;19.40;11.43;;;;;;;9.20;75.08;100737.34;5153566;56;1140894;-73
2021/05/03 13:30:37;;;;;;;29.10;18.23;;;;;;;9.18;66.37;100739.23;5154380;56;1140425;-73
2021/05/03 13:35:43;;;;;;;8.77;4.27;;;;;;;9.27;67.21;100732.49;5153682;56;1140546;-74
2021/05/03 13:40:48;;;;;;;2.33;2.13;;;;;;;9.53;67.79;100730.20;5154743;56;1136190;-73
2021/05/03 13:45:57;;;;;;;1.43;1.40;;;;;;;9.46;67.20;100744.33;5154266;56;1136190;-73
2021/05/03 13:51:06;;;;;;;0.70;0.70;;;;;;;9.22;66.72;100752.59;5154129;56;1136277;-73
2021/05/03 13:56:11;;;;;;;1.53;1.43;;;;;;;8.99;68.56;100757.28;5154095;56;1136439;-73
2021/05/03 14:01:17;;;;;;;2.00;1.80;;;;;;;8.87;67.44;100751.48;5154650;56;1136206;-74
2021/05/03 14:06:24;;;;;;;1.27;1.03;;;;;;;8.94;70.52;100758.89;5140901;56;1136561;-73
2021/05/03 14:11:29;;;;;;;1.83;1.63;;;;;;;9.26;67.68;100746.16;5135782;56;1136764;-74
2021/05/03 14:16:36;;;;;;;3.73;2.67;;;;;;;9.40;68.17;100746.06;5113564;55;1136719;-74
2021/05/03 14:21:42;;;;;;;1.53;1.20;;;;;;;9.42;69.40;100742.84;5152345;56;1136393;-74
2021/05/03 14:26:48;;;;;;;130.17;35.97;;;;;;;9.50;69.01;100751.53;5154211;56;1136408;-74
2021/05/03 14:32:19;;;;;;;222.27;75.87;;;;;;;9.30;69.66;100755.57;5153836;56;1142679;-73
2021/05/03 14:37:20;;;;;;;19.03;10.50;;;;;;;9.10;71.14;100749.48;5153332;56;1142600;-72
2021/05/03 14:42:25;;;;;;;11.30;5.80;;;;;;;8.94;70.94;100744.39;5149423;56;1140529;-73
2021/05/03 14:47:41;;;;;;;4.73;1.23;;;;;;;9.23;73.85;100745.05;5153833;56;1138268;-73
2021/05/03 14:53:02;;;;;;;6.07;3.27;;;;;;;9.55;70.80;100742.83;5152734;56;1136428;-74
2021/05/03 14:58:00;;;;;;;7.33;4.20;;;;;;;9.58;70.17;100738.66;5152976;56;1136172;-73
2021/05/03 15:03:07;;;;;;;4.53;2.72;;;;;;;9.36;69.99;100741.94;5096518;56;1136744;-73
2021/05/03 15:08:13;;;;;;;2.10;1.10;;;;;;;9.24;66.92;100732.23;5091867;56;1136676;-74
2021/05/03 15:13:22;;;;;;;3.55;1.85;;;;;;;9.14;66.50;100741.26;5095154;56;1136825;-73
2021/05/03 15:23:31;;;;;;;1.43;1.33;;;;;;;8.97;65.86;100740.70;5100625;56;1136303;-73
2021/05/03 15:28:54;;;;;;;2.93;1.30;;;;;;;8.84;67.27;100748.60;5100604;56;1134153;-73
2021/05/03 15:33:50;;;;;;;6.47;1.90;;;;;;;8.49;68.56;100780.38;5098145;56;1136197;-73
2021/05/03 15:38:56;;;;;;;2.97;1.60;;;;;;;7.93;70.42;100784.34;5100502;56;1136454;-73
2021/05/03 15:44:19;;;;;;;2.37;1.83;;;;;;;7.52;71.96;100788.17;5100467;56;1136737;-73
2021/05/03 15:49:24;;;;;;;8.03;3.75;;;;;;;7.22;73.44;100783.44;5100430;56;1136848;-74
2021/05/03 15:54:30;;;;;;;6.03;3.43;;;;;;;7.08;74.11;100776.84;5100599;56;1136979;-73
2021/05/03 15:59:35;;;;;;;4.60;2.43;;;;;;;7.10;74.89;100772.34;5100425;56;1136688;-73
2021/05/03 16:04:41;;;;;;;4.97;2.57;;;;;;;7.10;74.85;100761.34;5100327;56;1136665;-72
2021/05/03 16:09:46;;;;;;;3.90;2.23;;;;;;;7.12;75.54;100755.53;5100505;56;1136718;-73
2021/05/03 16:14:52;;;;;;;4.13;2.67;;;;;;;7.16;75.37;100748.31;5139323;56;1136493;-73
2021/05/03 16:19:59;;;;;;;6.53;3.53;;;;;;;7.26;75.69;100745.03;5153190;56;1136354;-71
2021/05/03 16:25:05;;;;;;;2.53;2.33;;;;;;;7.39;75.29;100755.19;5138143;56;1136419;-73
2021/05/03 16:30:13;;;;;;;3.33;1.45;;;;;;;7.50;75.03;100753.20;5065750;57;1136288;-72
2021/05/03 16:35:19;;;;;;;2.60;1.97;;;;;;;7.48;73.13;100757.75;5065414;57;1136798;-71
2021/05/03 16:40:25;;;;;;;5.75;1.92;;;;;;;7.45;73.45;100750.50;5065063;57;1136704;-71
2021/05/03 16:45:30;;;;;;;3.07;1.10;;;;;;;7.45;71.27;100743.45;5074749;56;1136918;-72
2021/05/03 16:50:37;;;;;;;3.17;1.57;;;;;;;7.55;71.36;100735.83;5150624;56;1134775;-73
2021/05/03 16:55:42;;;;;;;2.07;1.40;;;;;;;7.72;70.97;100725.11;5154066;56;1134332;-72
2021/05/03 17:00:49;;;;;;;2.13;1.30;;;;;;;7.98;70.38;100705.86;5134621;56;1134708;-73
2021/05/03 17:05:55;;;;;;;3.97;1.73;;;;;;;7.98;70.38;100705.86;5125355;56;1136668;-73
2021/05/03 17:11:00;;;;;;;3.73;1.87;;;;;;;8.03;70.29;100715.64;5124490;56;1136601;-74
2021/05/03 17:16:06;;;;;;;1.77;1.00;;;;;;;8.02;70.65;100721.01;5128246;56;1134549;-72
2021/05/03 17:21:12;;;;;;;4.07;1.30;;;;;;;7.98;70.63;100715.08;5128235;56;1135041;-74
2021/05/03 17:26:17;;;;;;;8.23;7.47;;;;;;;7.98;70.57;100722.98;5125254;55;1136893;-72
2021/05/03 17:31:23;;;;;;;2.87;1.87;;;;;;;7.97;70.89;100727.88;5129583;56;1134786;-73
2021/05/03 17:36:30;;;;;;;1.60;1.50;;;;;;;7.97;71.30;100723.08;5125112;56;1134539;-73
2021/05/03 17:41:36;;;;;;;4.30;2.03;;;;;;;8.01;71.54;100727.22;5121831;55;1136617;-72
2021/05/03 17:46:42;;;;;;;3.80;2.10;;;;;;;8.00;71.94;100715.83;5124309;56;1136582;-73
2021/05/03 17:51:47;;;;;;;19.60;7.47;;;;;;;8.02;72.19;100723.64;4996838;56;1134578;-73
2021/05/03 17:56:53;;;;;;;12.27;4.57;;;;;;;8.02;73.00;100732.39;4996322;57;1138963;-73
2021/05/03 18:01:59;;;;;;;9.07;3.00;;;;;;;8.02;73.00;100732.39;5124890;56;1138690;-74
2021/05/03 18:07:05;;;;;;;1.47;1.33;;;;;;;7.97;72.49;100740.20;5127082;56;1136791;-73
2021/05/03 18:12:11;;;;;;;0.83;0.50;;;;;;;7.91;71.76;100747.19;5122473;55;1136669;-75
2021/05/03 18:17:17;;;;;;;0.55;0.55;;;;;;;7.72;67.18;100750.11;5108543;56;1134766;-74
2021/05/03 18:22:23;;;;;;;3.10;1.60;;;;;;;7.52;67.48;100746.53;5006504;56;1134579;-73
2021/05/03 18:27:29;;;;;;;41.37;13.35;;;;;;;7.36;68.36;100751.42;5009163;57;1134911;-74
2021/05/03 18:32:38;;;;;;;29.67;11.60;;;;;;;7.29;69.78;100746.17;5006298;56;1138984;-72
2021/05/03 18:37:42;;;;;;;33.83;14.57;;;;;;;7.28;70.50;100745.78;5004643;57;1140866;-73
2021/05/03 18:42:48;;;;;;;43.77;16.97;;;;;;;7.26;71.02;100752.92;5005674;56;1138730;-72
2021/05/03 18:47:53;;;;;;;2.50;1.67;;;;;;;7.21;71.39;100749.70;5005136;57;1138531;-75
2021/05/03 18:52:59;;;;;;;12.90;6.27;;;;;;;7.22;71.66;100748.77;5003001;57;1136560;-72
2021/05/03 18:58:05;;;;;;;46.63;20.23;;;;;;;7.22;71.72;100750.09;5008185;57;1138314;-73
2021/05/03 19:03:11;;;;;;;5.27;3.10;;;;;;;7.19;71.96;100755.99;5012351;57;1140366;-73
2021/05/03 19:08:18;;;;;;;18.27;9.35;;;;;;;7.13;72.13;100745.39;5012220;57;1134645;-73
2021/05/03 19:13:23;;;;;;;47.05;15.95;;;;;;;7.05;72.37;100745.83;5011604;57;1136734;-74
2021/05/03 19:18:29;;;;;;;384.55;169.07;;;;;;;7.00;72.68;100751.85;5015696;56;1138764;-73
2021/05/03 19:23:35;;;;;;;142.70;49.17;;;;;;;7.03;73.24;100747.70;5150849;56;1142953;-74
2021/05/03 19:28:41;;;;;;;207.40;57.77;;;;;;;7.08;73.53;100740.02;5134408;56;1140930;-73
2021/05/03 19:33:47;;;;;;;113.43;34.60;;;;;;;7.13;73.54;100736.66;5152243;56;1143205;-73
2021/05/03 19:38:53;;;;;;;147.17;53.03;;;;;;;7.19;73.55;100733.17;5151818;56;1142862;-74
2021/05/03 19:43:58;;;;;;;118.50;46.03;;;;;;;7.24;73.71;100727.17;5151922;56;1143195;-73
2021/05/03 19:49:32;;;;;;;52.13;25.40;;;;;;;7.27;73.91;100727.46;5151626;56;1143145;-74
2021/05/03 20:05:01;;;;;;;39.30;18.03;;;;;;;6.80;74.00;100718.46;5152218;56;1138783;-73
2021/05/03 20:10:11;;;;;;;20.20;8.50;;;;;;;6.66;74.30;100718.80;5151830;56;1140848;-73
2021/05/03 20:15:17;;;;;;;31.33;13.70;;;;;;;6.58;74.43;100719.70;5148216;56;1138879;-73
2021/05/03 20:20:23;;;;;;;20.32;10.00;;;;;;;6.57;74.89;100724.57;5120853;56;1140877;-73
2021/05/03 20:25:30;;;;;;;44.08;21.95;;;;;;;6.57;75.29;100719.31;5130928;56;1140905;-73
2021/05/03 20:30:37;;;;;;;209.10;75.20;;;;;;;6.59;75.55;100717.45;5134488;56;1138829;-73
2021/05/03 20:35:54;;;;;;;115.97;48.97;;;;;;;6.61;75.62;100720.84;5152189;56;1140919;-74
2021/05/03 20:40:51;;;;;;;43.77;21.27;;;;;;;6.61;75.52;100722.63;5137672;56;1140808;-73
2021/05/03 20:45:57;;;;;;;16.47;8.37;;;;;;;6.56;75.18;100725.53;5138770;56;1140823;-73
2021/05/03 20:51:03;;;;;;;14.07;8.13;;;;;;;6.46;74.80;100730.07;5141653;56;1138795;-73
2021/05/03 20:56:09;;;;;;;22.80;8.77;;;;;;;6.30;74.98;100730.09;5152600;56;1138929;-74
2021/05/03 21:01:15;;;;;;;16.73;8.57;;;;;;;6.12;75.39;100731.13;5152876;56;1136849;-75
2021/05/03 21:06:20;;;;;;;13.08;6.60;;;;;;;5.99;75.59;100736.20;5152497;56;1136662;-74
2021/05/03 21:11:26;;;;;;;15.28;7.35;;;;;;;5.86;75.85;100732.07;5137406;56;1136843;-73
2021/05/03 21:16:33;;;;;;;41.95;20.05;;;;;;;5.81;76.08;100727.53;5075679;56;1138856;-74
2021/05/03 21:21:39;;;;;;;54.00;25.50;;;;;;;5.88;76.49;100728.05;5067854;56;1140578;-74
2021/05/03 21:26:45;;;;;;;45.10;19.33;;;;;;;5.98;76.75;100720.08;5021987;56;1140792;-73
2021/05/03 21:31:51;;;;;;;46.40;17.73;;;;;;;6.05;76.70;100721.91;5014003;57;1138516;-74
2021/05/03 21:36:56;;;;;;;44.80;21.97;;;;;;;6.04;76.60;100716.27;5014013;57;1138476;-74
2021/05/03 21:42:02;;;;;;;113.03;45.23;;;;;;;6.04;76.66;100714.50;5014248;56;1138633;-74
2021/05/03 21:47:08;;;;;;;92.20;37.20;;;;;;;6.04;76.63;100716.27;5013799;57;1141049;-74
2021/05/03 21:52:14;;;;;;;80.57;32.08;;;;;;;6.05;76.48;100712.72;5013845;57;1138613;-74
2021/05/03 21:57:20;;;;;;;58.35;24.75;;;;;;;6.05;76.22;100701.75;5013675;57;1140878;-73
2021/05/03 22:02:25;;;;;;;32.13;14.15;;;;;;;5.99;76.05;100719.14;5013851;57;1140459;-73
2021/05/03 22:07:31;;;;;;;23.70;10.82;;;;;;;5.90;76.30;100715.73;5014188;57;1138553;-75
2021/05/03 22:12:37;;;;;;;23.33;11.13;;;;;;;5.79;76.46;100722.86;5116166;56;1138655;-73
2021/05/03 22:23:40;;;;;;;41.30;20.20;;;;;;;5.85;77.14;100707.22;5151240;56;1140406;-73
2021/05/03 22:33:32;;;;;;;48.30;17.43;;;;;;;6.00;77.25;100694.59;5099732;56;1138806;-73
2021/05/03 22:38:49;;;;;;;56.53;20.13;;;;;;;6.02;77.24;100693.19;5098988;56;1138532;-73
2021/05/03 23:10:31;;;;;;;80.90;26.10;;;;;;;6.07;77.78;100657.88;5098920;56;1138533;-74
2021/05/03 23:20:33;;;;;;;36.75;15.45;;;;;;;6.10;77.84;100641.11;5098858;56;1138733;-73
2021/05/03 23:25:39;;;;;;;41.80;15.90;;;;;;;6.10;77.67;100630.61;5106241;56;1140975;-73
2021/05/03 23:30:44;;;;;;;22.23;10.40;;;;;;;6.12;77.53;100618.20;5120554;56;1140836;-74
2021/05/03 23:35:50;;;;;;;18.47;8.27;;;;;;;6.13;77.62;100615.97;5151923;56;1140874;-74
2021/05/03 23:40:56;;;;;;;10.77;6.17;;;;;;;6.12;77.63;100617.75;5152515;56;1136736;-73
2021/05/03 23:46:01;;;;;;;9.83;6.23;;;;;;;5.96;77.22;100613.84;5152411;56;1136486;-74
2021/05/03 23:51:07;;;;;;;15.60;7.60;;;;;;;5.83;77.36;100614.59;5152460;56;1136455;-74
2021/05/03 23:56:13;;;;;;;11.20;6.00;;;;;;;5.81;77.77;100613.36;5152347;56;1138638;-74
